• Join FlightAware (Why Join?)
  • Login
  • US Flag 
09:39PM EST


 

Airport Tracker/Info


-or-


 

Live Flight TrackerFlight Track Log ✈ UAL582 ✈ 13-Apr-2013 ✈ KLAX - KIAD

Flight Track Log - Related Links

Times and Time Zones

All times are in EDT time to prevent confusion due to time zone crossing. See the UAL582 flight status page for this flight to view local times or setup timezone preferences in your user account.

Time Position Orientation Groundspeed Altitude Reporting Facility
EDT Latitude Longitude Course Direction KTS MPH feet Rate Location/Type
02:58AM 33.9342 -118.4381 90° East 186 214 1,300  Level Los Angeles Center
02:59AM 33.8933 -118.4953 229° Southwest 233 268 3,700 2,220 Climbing Los Angeles Center
03:00AM 33.7489 -118.5986 134° Southeast  Level FlightAware Approximate
03:00AM 33.8206 -118.5050 186° South 273 314 5,800  Level Los Angeles Center
03:01AM 33.6758 -118.4716 101° East  Level FlightAware Approximate
03:01AM 33.7408 -118.5158 186° South 291 335 8,500  Level Los Angeles Center
03:02AM 33.6333 -118.3223 90° East  Level FlightAware Approximate
03:02AM 33.6725 -118.4650 148° Southeast 329 379 10,400  Level Los Angeles Center
03:03AM 33.6333 -118.1628 90° East  Level FlightAware Approximate
03:03AM 33.6481 -118.3503 104° East 355 409 12,200  Level Los Angeles Center
03:04AM 33.6422 -118.2294 93° East 386 444 14,600 2,160 Climbing Los Angeles Center
03:05AM 33.6439 -118.1053 89° East 381 438 16,600 2,220 Climbing Los Angeles Center
03:06AM 33.6428 -117.9458 90° East 398 458 19,100 2,100 Climbing Los Angeles Center
03:07AM 33.6417 -117.8092 91° East 409 471 20,900 1,740 Climbing Los Angeles Center
03:08AM 33.6411 -117.6686 90° East 422 486 22,700 1,680 Climbing Los Angeles Center
03:09AM 33.6406 -117.5247 90° East 431 496 24,400 1,440 Climbing Los Angeles Center
03:10AM 33.6403 -117.3786 90° East 439 505 25,700 1,260 Climbing Los Angeles Center
03:11AM 33.6394 -117.2267 90° East 455 524 27,000 1,260 Climbing Los Angeles Center
03:12AM 33.6378 -117.0711 91° East 466 536 28,300 1,200 Climbing Los Angeles Center
03:13AM 33.6397 -116.9122 89° East 477 549 29,500 1,080 Climbing Los Angeles Center
03:14AM 33.6656 -116.7742 77° East 477 549 30,500 1,200 Climbing Los Angeles Center
03:15AM 33.6992 -116.6203 75° East 475 547 32,000 1,380 Climbing Los Angeles Center
03:16AM 33.7325 -116.4672 75° East 474 545 33,300 1,140 Climbing Los Angeles Center
03:17AM 33.7667 -116.3144 75° East 472 543 34,300 840 Climbing Los Angeles Center
03:18AM 33.8022 -116.1603 74° East 476 548 35,000 300 Climbing Los Angeles Center
03:19AM 33.8469 -116.0097 70° East 477 549 35,000  Level Los Angeles Center
03:20AM 33.8942 -115.8561 70° East 486 559 35,000  Level Los Angeles Center
03:21AM 33.9419 -115.7039 69° East 487 560 35,000  Level Los Angeles Center
03:22AM 33.9881 -115.5500 70° East 487 560 35,000  Level Los Angeles Center
03:23AM 34.0447 -115.3675 69° East 486 559 35,000  Level Los Angeles Center
03:24AM 34.1103 -115.2242 61° Northeast 489 563 35,000  Level Los Angeles Center
03:25AM 34.1753 -115.0833 61° Northeast 484 557 35,100 540 Climbing Los Angeles Center
03:26AM 34.2333 -114.9361 64° Northeast 485 558 36,100 840 Climbing Los Angeles Center
03:27AM 34.2792 -114.7819 70° East 489 563 36,900 420 Climbing Los Angeles Center
03:28AM 34.3236 -114.6272 71° East 487 560 37,000  Climbing Los Angeles Center
03:29AM 34.3683 -114.4706 71° East 492 566 37,000  Level Los Angeles Center
03:30AM 34.4122 -114.3172 71° East 485 558 37,000 -60 Level Los Angeles Center
03:31AM 34.4658 -114.1267 71° East 495 570 36,900  Descending Los Angeles Center
03:32AM 34.5014 -113.9989 71° East 496 571 37,000  Climbing Albuquerque Center
03:33AM 34.5467 -113.8397 71° East 500 575 37,000  Level Albuquerque Center
03:34AM 34.5914 -113.6800 71° East 501 577 37,000  Level Albuquerque Center
03:35AM 34.6292 -113.5436 71° East 502 578 37,000  Level Albuquerque Center
03:36AM 34.6725 -113.3842 72° East 503 579 37,000  Level Albuquerque Center
03:37AM 34.7150 -113.2231 72° East 504 580 37,000  Level Albuquerque Center
03:38AM 34.7669 -113.0317 72° East 504 580 37,000  Level Albuquerque Center
03:39AM 34.8094 -112.8744 72° East 497 572 37,000  Level Albuquerque Center
03:40AM 34.8517 -112.7164 72° East 498 573 37,000  Level Albuquerque Center
03:41AM 34.8936 -112.5592 72° East 497 572 37,000  Level Albuquerque Center
03:42AM 34.9350 -112.4019 72° East 495 570 37,000  Level Albuquerque Center
03:43AM 34.9767 -112.2433 72° East 495 570 37,000  Level Albuquerque Center
03:44AM 35.0183 -112.0847 72° East 496 571 37,000  Level Albuquerque Center
03:45AM 35.0606 -111.9231 72° East 501 577 37,000  Level Albuquerque Center
03:46AM 35.1014 -111.7631 73° East 500 575 37,000  Level Albuquerque Center
03:47AM 35.1453 -111.5908 73° East 499 574 37,000  Level Albuquerque Center
03:48AM 35.1861 -111.4325 72° East 493 567 37,000  Level Albuquerque Center
03:49AM 35.2261 -111.2717 73° East 493 567 37,000  Level Albuquerque Center
03:50AM 35.2664 -111.1111 73° East 493 567 37,000  Level Albuquerque Center
03:51AM 35.3058 -110.9578 72° East 495 570 37,000  Level Albuquerque Center
03:52AM 35.3503 -110.7764 73° East 497 572 37,000  Level Albuquerque Center
03:53AM 35.3878 -110.6203 74° East 499 574 37,000  Level Albuquerque Center
03:54AM 35.4283 -110.4650 72° East 500 575 37,000  Level Albuquerque Center
03:55AM 35.4653 -110.3094 74° East 499 574 37,000  Level Albuquerque Center
03:56AM 35.5108 -110.1264 73° East 501 577 37,000  Level Albuquerque Center
03:57AM 35.5489 -109.9675 74° East 505 581 37,000  Level Albuquerque Center
03:58AM 35.5869 -109.8092 73° East 507 583 37,000  Level Albuquerque Center
03:59AM 35.6308 -109.6219 74° East 511 588 37,000  Level Albuquerque Center
04:00AM 35.6689 -109.4603 74° East 513 590 37,000  Level Albuquerque Center
04:01AM 35.7061 -109.2978 74° East 515 593 37,000 -900 Level Albuquerque Center
04:02AM 35.7500 -109.1094 74° East 515 593 35,200 -1,020 Descending Albuquerque Center
04:03AM 35.7886 -108.9422 74° East 528 608 35,000 -120 Descending Albuquerque Center
04:04AM 35.8261 -108.7797 74° East 525 604 35,000  Level Albuquerque Center
04:05AM 35.8692 -108.5892 74° East 524 603 35,000  Level Albuquerque Center
04:06AM 35.9056 -108.4264 75° East 521 600 35,000  Level Albuquerque Center
04:07AM 35.9422 -108.2628 74° East 519 597 35,000  Level Albuquerque Center
04:08AM 35.9847 -108.0697 75° East 523 602 35,000  Level Albuquerque Center
04:09AM 36.0206 -107.9069 75° East 518 596 35,000  Level Albuquerque Center
04:10AM 36.0539 -107.7392 76° East 523 602 35,000  Level Albuquerque Center
04:11AM 36.0892 -107.5694 76° East 530 610 35,000  Level Albuquerque Center
04:12AM 36.1317 -107.3675 75° East 540 621 35,000  Level Albuquerque Center
04:13AM 36.1664 -107.1964 76° East 539 620 35,000  Level Albuquerque Center
04:14AM 36.2133 -107.0317 71° East 533 613 35,000  Level Albuquerque Center
04:15AM 36.2664 -106.8414 71° East 526 605 35,000  Level Albuquerque Center
04:16AM 36.3139 -106.6786 70° East 524 603 35,000  Level Albuquerque Center
04:17AM 36.3594 -106.5181 71° East 520 598 35,000  Level Albuquerque Center
04:18AM 36.4056 -106.3558 71° East 520 598 35,000 -360 Level Albuquerque Center
04:19AM 36.4583 -106.1642 71° East 524 603 34,300 -720 Descending Albuquerque Center
04:20AM 36.5019 -106.0014 72° East 522 601 33,600 -660 Descending Albuquerque Center
04:21AM 36.5253 -105.8444 79° East 519 597 33,000 -300 Descending Albuquerque Center
04:22AM 36.5428 -105.6617 83° East 528 608 33,000  Level Albuquerque Center
04:23AM 36.5678 -105.4608 81° East 525 604 33,000  Level Albuquerque Center
04:24AM 36.5875 -105.2903 82° East 524 603 33,100  Climbing Albuquerque Center
04:25AM 36.6094 -105.0992 82° East 518 596 33,000 -60 Descending Albuquerque Center
04:26AM 36.6297 -104.9203 82° East 517 595 33,000  Level Albuquerque Center
04:27AM 36.6511 -104.7439 81° East 512 589 33,000  Level Albuquerque Center
04:28AM 36.6708 -104.5681 82° East 509 586 33,000  Level Albuquerque Center
04:29AM 36.6889 -104.3994 82° East 505 581 33,000  Level Albuquerque Center
04:30AM 36.7067 -104.2417 82° East 492 566 33,000  Level Albuquerque Center
04:31AM 36.7239 -104.0872 82° East 480 552 33,000  Level Albuquerque Center
04:32AM 36.7436 -103.9056 82° East 476 548 33,000  Level Albuquerque Center
04:33AM 36.7600 -103.7506 82° East 475 547 33,000  Level Albuquerque Center
04:34AM 36.7764 -103.5919 83° East 480 552 33,100 660 Climbing Albuquerque Center
04:35AM 36.7933 -103.4306 82° East 488 562 34,400 1,380 Climbing Albuquerque Center
04:36AM 36.8119 -103.2444 83° East 487 560 35,900 1,200 Climbing Albuquerque Center
04:37AM 36.8333 -103.0883 80° East 483 556 36,800 540 Climbing Albuquerque Center
04:38AM 36.8589 -102.9300 79° East 485 558 37,000 60 Climbing Albuquerque Center
04:39AM 36.8883 -102.7428 79° East 491 565 37,000  Level Albuquerque Center
04:40AM 36.9139 -102.5797 79° East 498 573 37,000  Level Albuquerque Center
04:41AM 36.9394 -102.4075 79° East 498 573 37,000  Level Albuquerque Center
04:42AM 36.9644 -102.2431 79° East 502 578 37,000  Level Albuquerque Center
04:43AM 36.9889 -102.0806 79° East 499 574 37,000  Level Albuquerque Center
04:44AM 37.0075 -101.8914 83° East 493 567 37,000  Level Albuquerque Center
04:45AM 37.0153 -101.7297 87° East 490 564 37,000  Level Albuquerque Center
04:46AM 37.0228 -101.5694 87° East 486 559 37,000  Level Albuquerque Center
04:48AM 37.0414 -101.2200 86° East 488 562 37,000  Level Kansas City Center
04:49AM 37.0500 -101.0603 86° East 486 559 37,000  Level Kansas City Center
04:50AM 37.0578 -100.9003 86° East 484 557 37,000  Level Kansas City Center
04:51AM 37.0661 -100.7150 87° East 482 555 37,000  Level Kansas City Center
04:52AM 37.0739 -100.5558 86° East 482 555 37,000  Level Kansas City Center
04:53AM 37.0808 -100.3967 87° East 482 555 37,000  Level Kansas City Center
04:54AM 37.0881 -100.2367 87° East 482 555 37,000  Level Kansas City Center
04:55AM 37.0953 -100.0475 87° East 486 559 37,000  Level Kansas City Center
04:56AM 37.1025 -99.8831 87° East 493 567 37,000  Level Kansas City Center
04:57AM 37.1086 -99.7200 87° East 492 566 37,000  Level Kansas City Center
04:58AM 37.1161 -99.5267 87° East 497 572 37,000  Level Kansas City Center
04:59AM 37.1211 -99.3583 88° East 506 582 37,000  Level Kansas City Center
05:00AM 37.1269 -99.1808 88° East 508 585 37,000  Level Kansas City Center
05:01AM 37.1317 -99.0317 88° East 506 582 37,000  Level Kansas City Center
05:02AM 37.1381 -98.8225 88° East 503 579 37,000  Level Kansas City Center
05:03AM 37.1433 -98.6494 88° East 500 575 37,000  Level Kansas City Center
05:04AM 37.1494 -98.4772 87° East 499 574 37,000  Level Kansas City Center
05:05AM 37.1750 -98.3058 79° East 508 585 37,000  Level Kansas City Center
05:06AM 37.2017 -98.1344 79° East 503 579 37,000  Level Kansas City Center
05:07AM 37.2264 -97.9650 80° East 501 577 37,000  Level Kansas City Center
05:08AM 37.2506 -97.7986 80° East 495 570 37,000  Level Kansas City Center
05:09AM 37.2739 -97.6306 80° East 493 567 37,000  Level Kansas City Center
05:10AM 37.2972 -97.4614 80° East 495 570 37,000  Level Kansas City Center
05:11AM 37.3231 -97.2936 79° East 494 568 37,000  Level Kansas City Center
05:12AM 37.3467 -97.1275 80° East 490 564 37,000  Level Kansas City Center
05:13AM 37.3706 -96.9625 80° East 485 558 37,000  Level Kansas City Center
05:14AM 37.3933 -96.7983 80° East 481 554 37,000  Level Kansas City Center
05:15AM 37.4161 -96.6347 80° East 478 550 37,000  Level Kansas City Center
05:16AM 37.4392 -96.4706 80° East 478 550 37,000  Level Kansas City Center
05:17AM 37.4625 -96.2908 81° East 477 549 37,000  Level Kansas City Center
05:18AM 37.4847 -96.1261 80° East 477 549 37,000  Level Kansas City Center
05:19AM 37.5056 -95.9614 81° East 475 547 37,000  Level Kansas City Center
05:20AM 37.5261 -95.7961 81° East 476 548 37,000  Level Kansas City Center
05:21AM 37.5478 -95.6311 81° East 475 547 37,000  Level Kansas City Center
05:22AM 37.5686 -95.4656 81° East 476 548 37,000  Level Kansas City Center
05:23AM 37.5853 -95.3322 81° East 477 549 37,000  Level Kansas City Center
05:24AM 37.6058 -95.1647 81° East 480 552 37,000  Level Kansas City Center
05:25AM 37.6267 -94.9958 81° East 482 555 37,000  Level Kansas City Center
05:26AM 37.6472 -94.8258 81° East 487 560 37,000  Level Kansas City Center
05:27AM 37.6675 -94.6542 81° East 491 565 37,000  Level Kansas City Center
05:28AM 37.6886 -94.4731 82° East 493 567 37,000  Level Kansas City Center
05:29AM 37.7081 -94.3083 81° East 494 568 37,000  Level Kansas City Center
05:30AM 37.7275 -94.1367 82° East 494 568 37,000  Level Kansas City Center
05:31AM 37.7469 -93.9672 82° East 489 563 37,000  Level Kansas City Center
05:32AM 37.7664 -93.7981 82° East 486 559 37,000  Level Kansas City Center
05:33AM 37.7839 -93.6278 83° East 487 560 37,000  Level Kansas City Center
05:34AM 37.8014 -93.4603 82° East 482 555 37,000  Level Kansas City Center
05:35AM 37.8106 -93.2939 86° East 477 549 37,000  Level Kansas City Center
05:36AM 37.8214 -93.1283 85° East 474 545 37,000  Level Kansas City Center
05:37AM 37.8350 -92.9628 84° East 471 542 37,000  Level Kansas City Center
05:38AM 37.8458 -92.7992 85° East 467 537 37,000  Level Kansas City Center
05:39AM 37.8581 -92.6242 85° East 470 541 37,000  Level Kansas City Center
05:40AM 37.8692 -92.4569 85° East 476 548 37,000  Level Kansas City Center
05:41AM 37.8819 -92.2894 84° East 480 552 37,000  Level Kansas City Center
05:42AM 37.8881 -92.1175 87° East 487 560 37,000  Level Kansas City Center
05:43AM 37.9003 -91.9319 85° East 488 562 37,000  Level Kansas City Center
05:44AM 37.9103 -91.7594 86° East 489 563 37,000  Level Kansas City Center
05:45AM 37.9203 -91.5864 86° East 492 566 37,000  Level Kansas City Center
05:46AM 37.9314 -91.4144 85° East 490 564 37,000  Level Kansas City Center
05:47AM 37.9400 -91.2389 86° East 497 572 37,000  Level Kansas City Center
05:48AM 37.9494 -91.0644 86° East 496 571 37,000  Level Kansas City Center
05:49AM 37.9569 -90.9108 86° East 497 572 37,000  Level Kansas City Center
05:50AM 37.9642 -90.7353 87° East 501 577 37,000  Level Kansas City Center
05:51AM 37.9722 -90.5608 87° East 500 575 37,000  Level Kansas City Center
05:52AM 37.9822 -90.3617 86° East 502 578 37,000  Level Kansas City Center
05:53AM 37.9911 -90.1881 86° East 499 574 37,000  Level Kansas City Center
05:54AM 37.9994 -90.0136 86° East 498 573 37,000  Level Kansas City Center
05:55AM 38.0056 -89.8389 87° East 499 574 37,000  Level Kansas City Center
05:56AM 38.0106 -89.6633 88° East 500 575 37,000  Level Kansas City Center
05:57AM 38.0158 -89.4869 88° East 503 579 37,000  Level Kansas City Center
05:58AM 38.0211 -89.3083 88° East 507 583 37,000  Level Kansas City Center
05:59AM 38.0328 -89.1306 85° East 507 583 37,000  Level Kansas City Center
06:00AM 38.0483 -88.9783 83° East 512 589 37,000  Level Kansas City Center
06:01AM 38.0711 -88.7950 81° East 523 602 37,000  Level Kansas City Center
06:02AM 38.0975 -88.5989 80° East 531 611 37,000  Level Kansas City Center
06:03AM 38.1208 -88.4133 81° East 532 612 37,000  Level Kansas City Center
06:04AM 38.1431 -88.2275 81° East 530 610 37,000  Level Kansas City Center
06:05AM 38.1669 -88.0414 81° East 532 612 37,000 -540 Level Kansas City Center
06:06AM 38.1903 -87.8533 81° East 535 616 36,000 -1,560 Descending Kansas City Center
06:07AM 38.2136 -87.6633 81° East 540 621 34,000 -1,500 Descending Kansas City Center
06:08AM 38.2417 -87.4406 81° East 535 616 33,000 -480 Descending Indianapolis Center
06:09AM 38.2628 -87.2536 82° East 535 616 33,000 -360 Level Indianapolis Center
06:10AM 38.2819 -87.0822 82° East 536 617 32,300 -900 Descending Indianapolis Center
06:11AM 38.3039 -86.8867 82° East 544 626 31,300 -660 Descending Indianapolis Center
06:12AM 38.3242 -86.6933 82° East 551 634 31,000 -180 Descending Indianapolis Center
06:13AM 38.3453 -86.5039 82° East 541 623 31,000  Level Indianapolis Center
06:14AM 38.3658 -86.3103 82° East 550 633 31,000  Level Indianapolis Center
06:15AM 38.3875 -86.1156 82° East 552 635 31,000  Level Indianapolis Center
06:16AM 38.4053 -85.9200 83° East 555 639 31,000  Level Indianapolis Center
06:17AM 38.4267 -85.7272 82° East 553 636 31,000  Level Indianapolis Center
06:18AM 38.4444 -85.5331 83° East 550 633 31,000  Level Indianapolis Center
06:19AM 38.4639 -85.3414 83° East 545 627 31,000  Level Indianapolis Center
06:20AM 38.4819 -85.1508 83° East 547 629 31,000  Level Indianapolis Center
06:21AM 38.4989 -84.9572 84° East 547 629 31,000  Level Indianapolis Center
06:22AM 38.5169 -84.7614 83° East 551 634 31,000  Level Indianapolis Center
06:23AM 38.5331 -84.5628 84° East 558 642 31,000  Level Indianapolis Center
06:24AM 38.5508 -84.3667 83° East 557 641 31,000  Level Indianapolis Center
06:25AM 38.5678 -84.1692 84° East 558 642 31,000  Level Indianapolis Center
06:26AM 38.5842 -83.9686 84° East 563 648 31,000  Level Indianapolis Center
06:27AM 38.5994 -83.7708 84° East 560 644 31,000  Level Indianapolis Center
06:28AM 38.6142 -83.5711 85° East 560 644 31,000  Level Indianapolis Center
06:29AM 38.6297 -83.3714 84° East 562 647 31,000  Level Indianapolis Center
06:30AM 38.6458 -83.1636 84° East 567 652 31,000  Level Indianapolis Center
06:31AM 38.6422 -82.9675 91° East 569 655 31,000  Level Indianapolis Center
06:32AM 38.6014 -82.7778 105° East 556 640 31,000  Level Indianapolis Center
06:33AM 38.5550 -82.5872 107° East 558 642 31,000  Level Indianapolis Center
06:34AM 38.5083 -82.3969 107° East 556 640 31,000  Level Indianapolis Center
06:35AM 38.4600 -82.2089 108° East 559 643 31,000  Level Indianapolis Center
06:36AM 38.4125 -82.0214 108° East 558 642 31,000  Level Indianapolis Center
06:37AM 38.3658 -81.8353 108° East 558 642 31,000  Level Indianapolis Center
06:38AM 38.3447 -81.6417 98° East 564 649 31,000  Level Indianapolis Center
06:39AM 38.3394 -81.4467 92° East 562 647 31,000  Level Indianapolis Center
06:40AM 38.3325 -81.2497 93° East 563 648 31,000  Level Indianapolis Center
06:41AM 38.3269 -81.0867 92° East 553 636 31,000  Level Washington Center
06:42AM 38.3183 -80.9033 93° East 562 647 31,000  Level Washington Center
06:43AM 38.3103 -80.7097 93° East 562 647 31,000  Level Washington Center
06:44AM 38.3039 -80.5106 92° East 557 641 31,000  Level Washington Center
06:45AM 38.3225 -80.3108 83° East 557 641 31,000  Level Washington Center
06:46AM 38.3628 -80.1306 74° East 545 627 31,000 -900 Level Washington Center
06:47AM 38.4047 -79.9503 73° East 511 588 29,300 -1,500 Descending Washington Center
06:48AM 38.4400 -79.7853 75° East 484 557 28,000 -1,320 Descending Washington Center
06:49AM 38.4722 -79.6358 75° East 455 524 26,700 -1,380 Descending Washington Center
06:50AM 38.5039 -79.4944 74° East 434 499 25,300 -1,500 Descending Washington Center
06:51AM 38.5311 -79.3578 76° East 411 473 23,800 -1,500 Descending Washington Center
06:52AM 38.5581 -79.2344 74° East 398 458 22,300 -2,100 Descending Washington Center
06:53AM 38.5783 -79.1078 78° East 398 458 19,700 -2,400 Descending Washington Center
06:54AM 38.6144 -78.9394 75° East 398 458 17,500 -1,980 Descending Washington Center
06:55AM 38.6411 -78.8025 76° East 398 458 15,800 -1,740 Descending Washington Center
06:56AM 38.6697 -78.6708 74° East 392 451 14,100 -1,740 Descending Washington Center
06:57AM 38.6958 -78.5442 75° East 380 437 12,400 -1,500 Descending Washington Center
06:58AM 38.7217 -78.4203 75° East 368 423 11,200 -1,200 Descending Washington Center
06:59AM 38.7244 -78.3006 88° East 347 399 10,000 -1,260 Descending Washington Center
07:00AM 38.7125 -78.1831 97° East 335 386 8,700 -1,380 Descending Washington Center
07:01AM 38.7025 -78.0656 96° East 330 380 7,300 -1,200 Descending Washington Center
07:02AM 38.6942 -77.9564 96° East 330 380 6,400 -960 Descending Washington Center
07:03AM 38.7022 -77.8633 84° East 307 353 5,400 -1,020 Descending Washington Center
07:04AM 38.7125 -77.7653 82° East 290 334 4,400 -720 Descending Washington Center
07:05AM 38.7267 -77.6700 79° East 278 320 4,000 -420 Descending Washington Center
07:06AM 38.7333 -77.6167 81° East 271 312 3,800 -660 Descending Potomac TRACON
07:07AM 38.7833 -77.5500 46° Northeast 250 288 3,100 -780 Descending Potomac TRACON